createdAt,value
2016-12-31T00:00:12.674Z,972.40
2016-12-31T00:01:12.759Z,972.41
2016-12-31T00:02:11.905Z,972.36
2016-12-31T00:03:09.310Z,972.40
2016-12-31T00:04:19.094Z,972.40
2016-12-31T00:05:12.737Z,972.37
2016-12-31T00:06:13.300Z,972.39
2016-12-31T00:07:13.197Z,972.35
2016-12-31T00:08:12.017Z,972.32
2016-12-31T00:09:12.356Z,972.29
2016-12-31T00:10:12.326Z,972.29
2016-12-31T00:11:14.008Z,972.28
2016-12-31T00:12:12.606Z,972.27
2016-12-31T00:13:12.799Z,972.20
2016-12-31T00:14:12.340Z,972.19
2016-12-31T00:15:12.929Z,972.19
2016-12-31T00:16:12.450Z,972.21
2016-12-31T00:17:13.596Z,972.18
2016-12-31T00:18:12.591Z,972.15
2016-12-31T00:19:14.838Z,972.19
2016-12-31T00:20:11.880Z,972.17
2016-12-31T00:21:12.180Z,972.17
2016-12-31T00:22:12.414Z,972.18
2016-12-31T00:23:11.464Z,972.17
2016-12-31T00:24:13.055Z,972.20
2016-12-31T00:25:12.154Z,972.19
2016-12-31T00:26:12.189Z,972.16
2016-12-31T00:27:12.525Z,972.13
2016-12-31T00:28:13.080Z,972.14
2016-12-31T00:29:14.657Z,972.12
2016-12-31T00:30:12.600Z,972.14
2016-12-31T00:31:13.166Z,972.12
2016-12-31T00:32:12.740Z,972.14
2016-12-31T00:33:12.280Z,972.12
2016-12-31T00:34:13.945Z,972.10
2016-12-31T00:35:11.975Z,972.06
2016-12-31T00:36:11.939Z,972.09
2016-12-31T00:37:12.839Z,972.06
2016-12-31T00:38:12.546Z,972.02
2016-12-31T00:39:12.460Z,972.05
2016-12-31T00:40:12.899Z,972.03
2016-12-31T00:41:12.319Z,972.04
2016-12-31T00:42:13.015Z,972.07
2016-12-31T00:43:10.872Z,972.05
2016-12-31T00:44:12.579Z,971.98
2016-12-31T00:45:13.486Z,971.99
2016-12-31T00:46:12.708Z,972.02
2016-12-31T00:47:11.998Z,971.97
2016-12-31T00:48:12.139Z,972.01
2016-12-31T00:49:11.316Z,971.99
2016-12-31T00:50:12.385Z,971.92
2016-12-31T00:51:13.036Z,971.91
2016-12-31T00:52:13.591Z,971.88
2016-12-31T00:53:12.491Z,971.91
2016-12-31T00:54:14.043Z,971.88
2016-12-31T00:55:12.739Z,971.91
2016-12-31T00:56:12.558Z,971.94
2016-12-31T00:57:13.440Z,971.93
2016-12-31T00:58:12.314Z,971.94
2016-12-31T00:59:12.679Z,971.93
2016-12-31T01:00:14.010Z,971.89
2016-12-31T01:01:12.568Z,971.87
2016-12-31T01:02:15.649Z,971.83
2016-12-31T01:03:13.246Z,971.82
2016-12-31T01:04:13.689Z,971.82
2016-12-31T01:05:13.941Z,971.85
2016-12-31T01:06:13.169Z,971.86
2016-12-31T01:07:12.711Z,971.84
2016-12-31T01:08:13.302Z,971.86
2016-12-31T01:09:14.304Z,971.85
2016-12-31T01:10:13.018Z,971.85
2016-12-31T01:11:11.924Z,971.87
2016-12-31T01:12:12.480Z,971.83
2016-12-31T01:13:12.502Z,971.82
2016-12-31T01:14:13.165Z,971.81
2016-12-31T01:15:16.599Z,971.75
2016-12-31T01:16:14.062Z,971.80
2016-12-31T01:17:13.961Z,971.74
2016-12-31T01:18:14.958Z,971.72
2016-12-31T01:19:12.598Z,971.70
2016-12-31T01:20:13.131Z,971.66
2016-12-31T01:21:13.082Z,971.62
2016-12-31T01:22:12.629Z,971.70
2016-12-31T01:23:13.114Z,971.65
2016-12-31T01:24:12.650Z,971.66
2016-12-31T01:25:14.338Z,971.65
2016-12-31T01:26:12.429Z,971.65
2016-12-31T01:27:13.145Z,971.63
2016-12-31T01:28:12.809Z,971.63
2016-12-31T01:29:13.092Z,971.62
2016-12-31T01:30:12.189Z,971.66
2016-12-31T01:31:14.163Z,971.67
2016-12-31T01:32:12.157Z,971.67
2016-12-31T01:33:12.812Z,971.67
2016-12-31T01:34:12.218Z,971.62
2016-12-31T01:35:13.506Z,971.63
2016-12-31T01:36:13.401Z,971.61
2016-12-31T01:37:12.590Z,971.58
2016-12-31T01:38:12.659Z,971.55
2016-12-31T01:39:13.345Z,971.53
2016-12-31T01:40:12.786Z,971.51
2016-12-31T01:41:13.512Z,971.44
2016-12-31T01:42:13.213Z,971.45
2016-12-31T01:43:13.280Z,971.43
2016-12-31T01:44:11.070Z,971.42
2016-12-31T01:45:12.839Z,971.39
2016-12-31T01:46:12.659Z,971.36
2016-12-31T01:47:10.795Z,971.40
2016-12-31T01:48:13.801Z,971.36
2016-12-31T01:49:13.081Z,971.40
2016-12-31T01:50:12.887Z,971.37
2016-12-31T01:51:19.126Z,971.38
2016-12-31T01:52:13.589Z,971.37
2016-12-31T01:53:12.743Z,971.38
2016-12-31T01:54:14.302Z,971.38
2016-12-31T01:55:11.131Z,971.34
2016-12-31T01:56:13.614Z,971.29
2016-12-31T01:57:13.641Z,971.30
2016-12-31T01:58:13.946Z,971.30
2016-12-31T01:59:19.504Z,971.29
2016-12-31T02:00:13.102Z,971.26
2016-12-31T02:01:12.128Z,971.26
2016-12-31T02:02:13.022Z,971.27
2016-12-31T02:03:12.645Z,971.24
2016-12-31T02:04:12.663Z,971.23
2016-12-31T02:05:13.215Z,971.27
2016-12-31T02:06:12.708Z,971.29
2016-12-31T02:07:13.002Z,971.29
2016-12-31T02:08:12.611Z,971.32
2016-12-31T02:09:18.901Z,971.30
2016-12-31T02:10:12.951Z,971.30
2016-12-31T02:11:12.571Z,971.29
2016-12-31T02:12:12.009Z,971.27
2016-12-31T02:13:12.434Z,971.18
2016-12-31T02:14:13.025Z,971.19
2016-12-31T02:15:13.322Z,971.19
2016-12-31T02:16:13.036Z,971.25
2016-12-31T02:17:12.252Z,971.21
2016-12-31T02:18:09.370Z,971.24
2016-12-31T02:19:13.464Z,971.22
2016-12-31T02:20:11.352Z,971.24
2016-12-31T02:21:12.937Z,971.20
2016-12-31T02:22:13.473Z,971.20
2016-12-31T02:23:13.225Z,971.20
2016-12-31T02:24:13.383Z,971.17
2016-12-31T02:25:13.421Z,971.22
2016-12-31T02:26:12.501Z,971.20
2016-12-31T02:27:12.721Z,971.17
2016-12-31T02:28:12.744Z,971.16
2016-12-31T02:29:11.554Z,971.16
2016-12-31T02:30:13.212Z,971.09
2016-12-31T02:31:13.131Z,971.09
2016-12-31T02:32:12.777Z,971.11
2016-12-31T02:33:12.922Z,971.09
2016-12-31T02:34:12.833Z,971.12
2016-12-31T02:35:12.869Z,971.10
2016-12-31T02:36:12.530Z,971.07
2016-12-31T02:37:12.545Z,971.08
2016-12-31T02:38:12.679Z,971.08
2016-12-31T02:39:12.549Z,971.02
2016-12-31T02:40:12.561Z,971.05
2016-12-31T02:41:13.452Z,971.03
2016-12-31T02:42:13.148Z,971.00
2016-12-31T02:43:14.144Z,971.02
2016-12-31T02:44:12.794Z,971.05
2016-12-31T02:45:11.913Z,971.03
2016-12-31T02:46:12.526Z,971.07
2016-12-31T02:47:13.235Z,971.03
2016-12-31T02:48:12.276Z,971.05
2016-12-31T02:49:12.979Z,971.04
2016-12-31T02:50:13.215Z,971.02
2016-12-31T02:51:12.123Z,971.02
2016-12-31T02:52:12.215Z,971.03
2016-12-31T02:53:12.302Z,971.01
2016-12-31T02:54:12.442Z,971.01
2016-12-31T02:55:13.942Z,971.03
2016-12-31T02:56:12.018Z,971.02
2016-12-31T02:57:11.988Z,971.02
2016-12-31T02:58:12.104Z,971.06
2016-12-31T02:59:12.204Z,971.01
2016-12-31T03:00:13.554Z,971.02
2016-12-31T03:01:14.011Z,971.00
2016-12-31T03:02:12.089Z,971.00
2016-12-31T03:03:12.425Z,970.96
2016-12-31T03:04:13.259Z,970.98
2016-12-31T03:05:12.263Z,970.97
2016-12-31T03:06:11.403Z,970.97
2016-12-31T03:07:14.465Z,970.97
2016-12-31T03:08:12.984Z,970.93
2016-12-31T03:09:12.736Z,971.00
2016-12-31T03:10:13.811Z,971.00
2016-12-31T03:11:13.287Z,970.99
2016-12-31T03:12:11.031Z,970.98
2016-12-31T03:13:12.048Z,971.01
2016-12-31T03:14:12.854Z,970.96
2016-12-31T03:15:13.455Z,970.96
2016-12-31T03:16:13.943Z,970.92
2016-12-31T03:17:12.109Z,970.95
2016-12-31T03:18:12.233Z,970.95
2016-12-31T03:19:12.364Z,970.92
2016-12-31T03:20:13.093Z,970.93
2016-12-31T03:21:10.841Z,970.95
2016-12-31T03:22:11.959Z,970.91
2016-12-31T03:23:12.051Z,970.92
2016-12-31T03:24:12.084Z,970.90
2016-12-31T03:25:13.403Z,970.84
2016-12-31T03:26:13.500Z,970.81
2016-12-31T03:27:13.211Z,970.80
2016-12-31T03:28:12.283Z,970.78
2016-12-31T03:29:12.939Z,970.80
2016-12-31T03:30:12.726Z,970.78
2016-12-31T03:31:13.562Z,970.78
2016-12-31T03:32:12.614Z,970.80
2016-12-31T03:33:14.375Z,970.79
2016-12-31T03:34:12.781Z,970.75
2016-12-31T03:35:12.263Z,970.71
2016-12-31T03:36:12.294Z,970.75
2016-12-31T03:37:13.158Z,970.72
2016-12-31T03:38:12.723Z,970.76
2016-12-31T03:39:13.189Z,970.72
2016-12-31T03:40:11.126Z,970.71
2016-12-31T03:41:12.884Z,970.71
2016-12-31T03:42:09.787Z,970.69
2016-12-31T03:43:12.919Z,970.69
2016-12-31T03:44:12.502Z,970.63
2016-12-31T03:45:12.461Z,970.63
2016-12-31T03:46:11.524Z,970.64
2016-12-31T03:47:12.551Z,970.68
2016-12-31T03:48:12.634Z,970.71
2016-12-31T03:49:12.693Z,970.67
2016-12-31T03:50:13.159Z,970.69
2016-12-31T03:51:12.179Z,970.61
2016-12-31T03:52:13.009Z,970.68
2016-12-31T03:53:12.761Z,970.59
2016-12-31T03:54:11.799Z,970.60
2016-12-31T03:55:12.361Z,970.54
2016-12-31T03:56:12.762Z,970.57
2016-12-31T03:57:12.333Z,970.55
2016-12-31T03:58:12.409Z,970.59
2016-12-31T03:59:13.111Z,970.53
2016-12-31T04:00:12.933Z,970.54
2016-12-31T04:01:12.032Z,970.54
2016-12-31T04:02:12.775Z,970.55
2016-12-31T04:03:13.526Z,970.47
2016-12-31T04:04:12.616Z,970.48
2016-12-31T04:05:13.245Z,970.46
2016-12-31T04:06:13.292Z,970.45
2016-12-31T04:07:12.891Z,970.47
2016-12-31T04:08:09.309Z,970.50
2016-12-31T04:09:13.083Z,970.48
2016-12-31T04:10:12.755Z,970.44
2016-12-31T04:11:12.375Z,970.44
2016-12-31T04:12:13.328Z,970.45
2016-12-31T04:13:12.910Z,970.46
2016-12-31T04:14:11.796Z,970.43
2016-12-31T04:15:10.814Z,970.49
2016-12-31T04:16:12.684Z,970.49
2016-12-31T04:17:13.444Z,970.49
2016-12-31T04:18:13.046Z,970.49
2016-12-31T04:19:13.827Z,970.45
2016-12-31T04:20:12.401Z,970.47
2016-12-31T04:21:11.217Z,970.46
2016-12-31T04:22:13.065Z,970.47
2016-12-31T04:23:12.766Z,970.45
2016-12-31T04:24:12.998Z,970.49
2016-12-31T04:25:11.965Z,970.52
2016-12-31T04:26:12.784Z,970.49
2016-12-31T04:27:11.833Z,970.50
2016-12-31T04:28:13.186Z,970.49
2016-12-31T04:29:12.180Z,970.46
2016-12-31T04:30:13.825Z,970.50
2016-12-31T04:31:10.101Z,970.45
2016-12-31T04:32:12.969Z,970.45
2016-12-31T04:33:11.850Z,970.44
2016-12-31T04:34:12.624Z,970.44
2016-12-31T04:35:13.297Z,970.48
2016-12-31T04:36:13.131Z,970.41
2016-12-31T04:37:09.279Z,970.41
2016-12-31T04:38:11.114Z,970.39
2016-12-31T04:39:12.243Z,970.38
2016-12-31T04:40:13.170Z,970.39
2016-12-31T04:41:12.654Z,970.39
2016-12-31T04:42:13.302Z,970.40
2016-12-31T04:43:12.553Z,970.37
2016-12-31T04:44:13.164Z,970.38
2016-12-31T04:45:12.128Z,970.39
2016-12-31T04:46:12.219Z,970.42
2016-12-31T04:47:12.700Z,970.42
2016-12-31T04:48:13.212Z,970.46
2016-12-31T04:49:12.612Z,970.43
2016-12-31T04:50:12.667Z,970.46
2016-12-31T04:51:14.441Z,970.48
2016-12-31T04:52:15.185Z,970.46
2016-12-31T04:53:12.240Z,970.49
2016-12-31T04:54:12.346Z,970.50
2016-12-31T04:55:12.498Z,970.50
2016-12-31T04:56:12.704Z,970.50
2016-12-31T04:57:11.890Z,970.49
2016-12-31T04:58:12.579Z,970.49
2016-12-31T04:59:13.381Z,970.49
2016-12-31T05:00:14.011Z,970.47
2016-12-31T05:01:13.725Z,970.50
2016-12-31T05:02:13.121Z,970.50
2016-12-31T05:03:12.293Z,970.53
2016-12-31T05:04:12.340Z,970.53
2016-12-31T05:05:15.041Z,970.54
2016-12-31T05:06:12.931Z,970.54
2016-12-31T05:07:12.468Z,970.55
2016-12-31T05:08:12.486Z,970.55
2016-12-31T05:09:12.336Z,970.52
2016-12-31T05:10:11.014Z,970.50
2016-12-31T05:11:12.980Z,970.57
2016-12-31T05:12:12.798Z,970.60
2016-12-31T05:13:12.685Z,970.52
2016-12-31T05:14:12.875Z,970.52
2016-12-31T05:15:11.879Z,970.51
2016-12-31T05:16:10.933Z,970.56
2016-12-31T05:17:12.750Z,970.53
2016-12-31T05:18:19.067Z,970.55
2016-12-31T05:19:12.282Z,970.56
2016-12-31T05:20:12.150Z,970.56
2016-12-31T05:21:12.199Z,970.54
2016-12-31T05:22:12.590Z,970.54
2016-12-31T05:23:12.690Z,970.56
2016-12-31T05:24:12.811Z,970.56
2016-12-31T05:25:18.372Z,970.58
2016-12-31T05:26:13.178Z,970.61
2016-12-31T05:27:12.775Z,970.60
2016-12-31T05:28:09.396Z,970.58
2016-12-31T05:29:11.436Z,970.56
2016-12-31T05:30:13.470Z,970.52
2016-12-31T05:31:13.188Z,970.50
2016-12-31T05:32:13.080Z,970.51
2016-12-31T05:33:12.447Z,970.51
2016-12-31T05:34:13.244Z,970.53
2016-12-31T05:35:13.060Z,970.55
2016-12-31T05:36:09.865Z,970.52
2016-12-31T05:37:13.164Z,970.51
2016-12-31T05:38:12.777Z,970.51
2016-12-31T05:39:12.212Z,970.53
2016-12-31T05:40:12.827Z,970.51
2016-12-31T05:41:11.909Z,970.56
2016-12-31T05:42:12.556Z,970.57
2016-12-31T05:43:12.493Z,970.57
2016-12-31T05:44:12.450Z,970.59
2016-12-31T05:45:12.485Z,970.55
2016-12-31T05:46:14.133Z,970.58
2016-12-31T05:47:12.077Z,970.59
2016-12-31T05:48:13.533Z,970.61
2016-12-31T05:49:18.206Z,970.60
2016-12-31T05:50:13.227Z,970.55
2016-12-31T05:51:10.352Z,970.58
2016-12-31T05:52:13.069Z,970.52
2016-12-31T05:53:11.957Z,970.52
2016-12-31T05:54:11.909Z,970.56
2016-12-31T05:55:12.288Z,970.56
2016-12-31T05:56:12.901Z,970.55
2016-12-31T05:57:13.730Z,970.59
2016-12-31T05:58:12.753Z,970.59
2016-12-31T05:59:13.440Z,970.57
2016-12-31T06:00:14.028Z,970.57
2016-12-31T06:01:12.203Z,970.59
2016-12-31T06:02:13.070Z,970.56
2016-12-31T06:03:12.100Z,970.58
2016-12-31T06:04:13.687Z,970.58
2016-12-31T06:05:12.555Z,970.57
2016-12-31T06:06:12.596Z,970.58
2016-12-31T06:07:12.757Z,970.59
2016-12-31T06:08:13.434Z,970.62
2016-12-31T06:09:14.025Z,970.63
2016-12-31T06:10:11.319Z,970.67
2016-12-31T06:11:14.141Z,970.62
2016-12-31T06:12:12.747Z,970.70
2016-12-31T06:13:12.336Z,970.73
2016-12-31T06:14:12.122Z,970.74
2016-12-31T06:15:12.118Z,970.75
2016-12-31T06:16:12.529Z,970.73
2016-12-31T06:17:12.724Z,970.75
2016-12-31T06:18:13.213Z,970.71
2016-12-31T06:19:12.417Z,970.72
2016-12-31T06:20:13.862Z,970.72
2016-12-31T06:21:10.966Z,970.69
2016-12-31T06:22:12.621Z,970.76
2016-12-31T06:23:12.558Z,970.75
2016-12-31T06:24:12.633Z,970.77
2016-12-31T06:25:13.310Z,970.75
2016-12-31T06:26:11.151Z,970.75
2016-12-31T06:27:12.196Z,970.77
2016-12-31T06:28:12.887Z,970.82
2016-12-31T06:29:11.996Z,970.81
2016-12-31T06:30:12.737Z,970.80
2016-12-31T06:31:11.813Z,970.78
2016-12-31T06:32:12.504Z,970.84
2016-12-31T06:33:13.353Z,970.81
2016-12-31T06:34:12.476Z,970.81
2016-12-31T06:35:12.511Z,970.85
2016-12-31T06:36:12.539Z,970.84
2016-12-31T06:37:13.086Z,970.83
2016-12-31T06:38:13.668Z,970.88
2016-12-31T06:39:10.785Z,970.90
2016-12-31T06:40:10.939Z,970.88
2016-12-31T06:41:10.835Z,970.93
2016-12-31T06:42:12.589Z,970.90
2016-12-31T06:43:12.659Z,970.94
2016-12-31T06:44:14.350Z,970.93
2016-12-31T06:45:12.963Z,970.85
2016-12-31T06:46:11.870Z,970.92
2016-12-31T06:47:12.532Z,970.89
2016-12-31T06:48:12.450Z,970.90
2016-12-31T06:49:12.799Z,970.96
2016-12-31T06:50:12.091Z,970.93
2016-12-31T06:51:12.518Z,970.93
2016-12-31T06:52:13.305Z,970.92
2016-12-31T06:53:12.830Z,970.94
2016-12-31T06:54:12.672Z,970.92
2016-12-31T06:55:13.214Z,970.92
2016-12-31T06:56:12.770Z,970.94
2016-12-31T06:57:12.429Z,970.88
2016-12-31T06:58:10.915Z,970.86
2016-12-31T06:59:12.022Z,970.88
2016-12-31T07:00:12.610Z,970.86
2016-12-31T07:01:12.600Z,970.84
2016-12-31T07:02:14.230Z,970.86
2016-12-31T07:03:13.084Z,970.93
2016-12-31T07:04:11.175Z,970.83
2016-12-31T07:05:12.663Z,970.81
2016-12-31T07:06:15.783Z,970.82
2016-12-31T07:07:12.588Z,970.81
2016-12-31T07:08:12.839Z,970.83
2016-12-31T07:09:12.476Z,970.83
2016-12-31T07:10:13.314Z,970.84
2016-12-31T07:11:12.247Z,970.88
2016-12-31T07:12:12.777Z,970.88
2016-12-31T07:13:12.503Z,970.93
2016-12-31T07:14:13.002Z,970.92
2016-12-31T07:15:12.398Z,970.95
2016-12-31T07:16:12.892Z,970.99
2016-12-31T07:17:13.290Z,971.00
2016-12-31T07:18:12.313Z,971.07
2016-12-31T07:19:13.523Z,971.05
2016-12-31T07:20:12.438Z,971.09
2016-12-31T07:21:13.537Z,971.04
2016-12-31T07:22:12.247Z,971.02
2016-12-31T07:23:12.948Z,971.04
2016-12-31T07:24:12.901Z,971.07
2016-12-31T07:25:12.542Z,971.05
2016-12-31T07:26:13.112Z,970.98
2016-12-31T07:27:13.703Z,970.98
2016-12-31T07:28:16.312Z,971.00
2016-12-31T07:29:14.133Z,970.99
2016-12-31T07:30:12.476Z,970.97
2016-12-31T07:31:12.631Z,970.97
2016-12-31T07:32:12.643Z,970.99
2016-12-31T07:33:14.318Z,971.01
2016-12-31T07:34:12.354Z,970.98
2016-12-31T07:35:14.102Z,970.97
2016-12-31T07:36:12.123Z,970.97
2016-12-31T07:37:13.743Z,971.00
2016-12-31T07:38:11.899Z,970.98
2016-12-31T07:39:09.963Z,971.03
2016-12-31T07:40:13.087Z,971.05
2016-12-31T07:41:12.925Z,971.03
2016-12-31T07:42:12.541Z,971.08
2016-12-31T07:43:12.480Z,971.06
2016-12-31T07:44:13.008Z,971.10
2016-12-31T07:45:13.069Z,971.09
2016-12-31T07:46:12.566Z,971.09
2016-12-31T07:47:13.148Z,971.09
2016-12-31T07:48:13.762Z,971.08
2016-12-31T07:49:12.843Z,971.05
2016-12-31T07:50:10.704Z,971.08
2016-12-31T07:51:12.268Z,971.08
2016-12-31T07:52:12.095Z,971.15
2016-12-31T07:53:12.717Z,971.15
2016-12-31T07:54:12.566Z,971.17
2016-12-31T07:55:13.189Z,971.20
2016-12-31T07:56:12.167Z,971.23
2016-12-31T07:57:13.990Z,971.22
2016-12-31T07:58:12.565Z,971.24
2016-12-31T07:59:18.335Z,971.21
2016-12-31T08:00:12.366Z,971.19
2016-12-31T08:01:12.439Z,971.15
2016-12-31T08:02:14.029Z,971.14
2016-12-31T08:03:11.955Z,971.13
2016-12-31T08:04:11.870Z,971.18
2016-12-31T08:05:12.078Z,971.21
2016-12-31T08:06:12.804Z,971.23
2016-12-31T08:07:12.398Z,971.23
2016-12-31T08:08:12.827Z,971.24
2016-12-31T08:09:11.931Z,971.20
2016-12-31T08:10:11.966Z,971.25
2016-12-31T08:11:12.129Z,971.23
2016-12-31T08:12:12.208Z,971.17
2016-12-31T08:13:11.088Z,971.19
2016-12-31T08:14:12.847Z,971.16
2016-12-31T08:15:11.915Z,971.24
2016-12-31T08:16:11.926Z,971.18
2016-12-31T08:17:10.885Z,971.11
2016-12-31T08:18:12.811Z,971.03
2016-12-31T08:19:11.992Z,970.97
2016-12-31T08:20:11.939Z,970.98
2016-12-31T08:21:12.548Z,970.95
2016-12-31T08:22:13.145Z,970.98
2016-12-31T08:23:12.891Z,970.96
2016-12-31T08:24:12.351Z,970.99
2016-12-31T08:25:13.059Z,970.98
2016-12-31T08:26:13.475Z,970.97
2016-12-31T08:27:12.972Z,970.98
2016-12-31T08:28:13.875Z,971.01
2016-12-31T08:29:12.074Z,970.97
2016-12-31T08:30:12.227Z,970.94
2016-12-31T08:31:12.330Z,970.93
2016-12-31T08:32:13.506Z,970.93
2016-12-31T08:33:12.609Z,970.91
2016-12-31T08:34:13.791Z,970.90
2016-12-31T08:35:11.778Z,970.85
2016-12-31T08:36:11.962Z,970.88
2016-12-31T08:37:12.063Z,970.87
2016-12-31T08:38:12.174Z,970.88
2016-12-31T08:39:12.869Z,970.85
2016-12-31T08:40:12.058Z,970.87
2016-12-31T08:41:12.558Z,970.85
2016-12-31T08:42:12.717Z,970.86
2016-12-31T08:43:12.041Z,970.83
2016-12-31T08:44:12.121Z,970.90
2016-12-31T08:45:12.102Z,970.87
2016-12-31T08:46:12.924Z,970.92
2016-12-31T08:47:17.563Z,970.89
2016-12-31T08:48:13.027Z,970.88
2016-12-31T08:49:12.053Z,970.89
2016-12-31T08:50:12.171Z,970.88
2016-12-31T08:51:12.329Z,970.87
2016-12-31T08:52:13.269Z,970.85
2016-12-31T08:53:12.795Z,970.88
2016-12-31T08:54:13.424Z,970.87
2016-12-31T08:55:12.894Z,970.86
2016-12-31T08:56:10.565Z,970.85
2016-12-31T08:57:11.775Z,970.83
2016-12-31T08:58:11.791Z,970.82
2016-12-31T08:59:12.241Z,970.82
2016-12-31T09:00:12.577Z,970.81
2016-12-31T09:01:18.226Z,970.79
2016-12-31T09:02:12.821Z,970.80
2016-12-31T09:03:12.427Z,970.84
2016-12-31T09:04:12.939Z,970.85
2016-12-31T09:05:12.666Z,970.82
2016-12-31T09:06:13.283Z,970.83
2016-12-31T09:07:12.355Z,970.85
2016-12-31T09:08:12.246Z,970.82
2016-12-31T09:09:12.041Z,970.81
2016-12-31T09:10:12.481Z,970.84
2016-12-31T09:11:12.444Z,970.85
2016-12-31T09:12:13.246Z,970.88
2016-12-31T09:13:12.623Z,970.85
2016-12-31T09:14:13.176Z,970.89
2016-12-31T09:15:12.089Z,970.80
2016-12-31T09:16:12.228Z,970.77
2016-12-31T09:17:12.353Z,970.81
2016-12-31T09:18:12.464Z,970.80
2016-12-31T09:19:11.257Z,970.80
2016-12-31T09:20:11.239Z,970.88
2016-12-31T09:21:12.737Z,970.84
2016-12-31T09:22:12.535Z,970.85
2016-12-31T09:23:13.258Z,970.82
2016-12-31T09:24:14.093Z,970.84
2016-12-31T09:25:12.551Z,970.80
2016-12-31T09:26:12.637Z,970.83
2016-12-31T09:27:12.688Z,970.81
2016-12-31T09:28:12.688Z,970.84
2016-12-31T09:29:12.775Z,970.84
2016-12-31T09:30:12.257Z,970.81
2016-12-31T09:31:13.577Z,970.81
2016-12-31T09:32:12.511Z,970.79
2016-12-31T09:33:11.896Z,970.78
2016-12-31T09:34:12.192Z,970.75
2016-12-31T09:35:12.208Z,970.69
2016-12-31T09:36:12.140Z,970.68
2016-12-31T09:37:13.826Z,970.73
2016-12-31T09:38:12.826Z,970.67
2016-12-31T09:39:13.799Z,970.68
2016-12-31T09:40:12.348Z,970.71
2016-12-31T09:41:12.973Z,970.73
2016-12-31T09:42:10.491Z,970.72
2016-12-31T09:43:10.696Z,970.73
2016-12-31T09:44:12.016Z,970.78
2016-12-31T09:45:12.887Z,970.75
2016-12-31T09:46:10.127Z,970.73
2016-12-31T09:47:09.760Z,970.73
2016-12-31T09:48:13.312Z,970.72
2016-12-31T09:49:12.334Z,970.66
2016-12-31T09:50:12.305Z,970.72
2016-12-31T09:51:14.146Z,970.60
2016-12-31T09:52:12.786Z,970.61
2016-12-31T09:53:13.382Z,970.58
2016-12-31T09:54:13.014Z,970.60
2016-12-31T09:55:12.813Z,970.53
2016-12-31T09:56:11.915Z,970.58
2016-12-31T09:57:12.743Z,970.58
2016-12-31T09:58:11.934Z,970.57
2016-12-31T09:59:12.557Z,970.57
2016-12-31T10:00:12.583Z,970.56
2016-12-31T10:01:12.656Z,970.55
2016-12-31T10:02:12.573Z,970.56
2016-12-31T10:03:13.058Z,970.57
2016-12-31T10:04:12.032Z,970.54
2016-12-31T10:05:12.272Z,970.51
2016-12-31T10:06:12.529Z,970.52
2016-12-31T10:07:13.056Z,970.52
2016-12-31T10:08:11.950Z,970.49
2016-12-31T10:09:12.174Z,970.49
2016-12-31T10:10:12.055Z,970.49
2016-12-31T10:11:12.114Z,970.46
2016-12-31T10:12:12.117Z,970.46
2016-12-31T10:13:13.867Z,970.45
2016-12-31T10:14:12.570Z,970.48
2016-12-31T10:15:12.589Z,970.39
2016-12-31T10:16:11.261Z,970.41
2016-12-31T10:17:14.321Z,970.42
2016-12-31T10:18:13.981Z,970.43
2016-12-31T10:19:12.640Z,970.38
2016-12-31T10:20:12.539Z,970.38
2016-12-31T10:21:11.601Z,970.36
2016-12-31T10:22:13.287Z,970.37
2016-12-31T10:23:12.358Z,970.35
2016-12-31T10:24:13.051Z,970.36
2016-12-31T10:25:12.386Z,970.35
2016-12-31T10:26:14.165Z,970.32
2016-12-31T10:27:12.252Z,970.30
2016-12-31T10:28:13.544Z,970.28
2016-12-31T10:29:11.134Z,970.27
2016-12-31T10:30:12.895Z,970.27
2016-12-31T10:31:10.862Z,970.26
2016-12-31T10:32:12.155Z,970.22
2016-12-31T10:33:12.188Z,970.24
2016-12-31T10:34:12.270Z,970.20
2016-12-31T10:35:13.025Z,970.17
2016-12-31T10:36:12.917Z,970.14
2016-12-31T10:37:12.236Z,970.08
2016-12-31T10:38:12.624Z,970.10
2016-12-31T10:39:12.665Z,970.05
2016-12-31T10:40:13.246Z,970.05
2016-12-31T10:41:12.914Z,970.01
2016-12-31T10:42:11.037Z,970.09
2016-12-31T10:43:12.971Z,970.04
2016-12-31T10:44:09.202Z,970.06
2016-12-31T10:45:12.437Z,970.03
2016-12-31T10:46:12.683Z,969.98
2016-12-31T10:47:14.663Z,969.93
2016-12-31T10:48:13.040Z,969.92
2016-12-31T10:49:13.859Z,969.93
2016-12-31T10:50:13.619Z,969.89
2016-12-31T10:51:12.777Z,969.88
2016-12-31T10:52:11.947Z,969.89
2016-12-31T10:53:12.437Z,969.84
2016-12-31T10:54:12.505Z,969.84
2016-12-31T10:55:12.454Z,969.83
2016-12-31T10:56:11.165Z,969.86
2016-12-31T10:57:12.391Z,969.86
2016-12-31T10:58:12.883Z,969.79
2016-12-31T10:59:12.545Z,969.78
2016-12-31T11:00:12.694Z,969.76
2016-12-31T11:01:11.636Z,969.75
2016-12-31T11:02:12.593Z,969.75
2016-12-31T11:03:14.144Z,969.70
2016-12-31T11:04:12.221Z,969.68
2016-12-31T11:05:12.685Z,969.70
2016-12-31T11:06:12.899Z,969.72
2016-12-31T11:07:12.410Z,969.70
2016-12-31T11:08:12.986Z,969.64
2016-12-31T11:09:12.535Z,969.66
2016-12-31T11:10:12.611Z,969.66
2016-12-31T11:11:11.703Z,969.65
2016-12-31T11:12:12.605Z,969.66
2016-12-31T11:13:13.447Z,969.67
2016-12-31T11:14:13.153Z,969.66
2016-12-31T11:15:12.904Z,969.65
2016-12-31T11:16:12.645Z,969.67
2016-12-31T11:17:11.974Z,969.60
2016-12-31T11:18:13.001Z,969.68
2016-12-31T11:19:10.707Z,969.62
2016-12-31T11:20:12.981Z,969.58
2016-12-31T11:21:12.799Z,969.54
2016-12-31T11:25:13.166Z,969.52
2016-12-31T11:26:12.113Z,969.56
2016-12-31T11:27:10.823Z,969.51
2016-12-31T11:28:12.080Z,969.48
2016-12-31T11:29:13.991Z,969.49
2016-12-31T11:30:12.600Z,969.46
2016-12-31T11:31:14.173Z,969.47
2016-12-31T11:32:13.297Z,969.46
2016-12-31T11:33:15.124Z,969.43
2016-12-31T11:34:13.798Z,969.41
2016-12-31T11:35:13.574Z,969.43
2016-12-31T11:36:13.059Z,969.40
2016-12-31T11:37:13.689Z,969.37
2016-12-31T11:38:13.332Z,969.39
2016-12-31T11:39:13.619Z,969.33
2016-12-31T11:40:13.437Z,969.36
2016-12-31T11:41:13.005Z,969.32
2016-12-31T11:42:13.346Z,969.31
2016-12-31T11:43:13.126Z,969.28
2016-12-31T11:44:13.905Z,969.29
2016-12-31T11:45:11.906Z,969.32
2016-12-31T11:46:12.632Z,969.28
2016-12-31T11:47:13.236Z,969.27
2016-12-31T11:48:12.837Z,969.23
2016-12-31T11:49:13.049Z,969.24
2016-12-31T11:50:12.585Z,969.26
2016-12-31T11:51:14.416Z,969.21
2016-12-31T11:52:13.392Z,969.21
2016-12-31T11:53:14.013Z,969.21
2016-12-31T11:54:12.788Z,969.24
2016-12-31T11:55:12.963Z,969.15
2016-12-31T11:56:13.583Z,969.22
2016-12-31T11:57:13.682Z,969.18
2016-12-31T11:58:12.594Z,969.18
2016-12-31T11:59:13.146Z,969.20
2016-12-31T12:00:12.907Z,969.15
2016-12-31T12:01:12.512Z,969.16
2016-12-31T12:02:12.486Z,969.14
2016-12-31T12:03:14.057Z,969.15
2016-12-31T12:04:13.698Z,969.15
2016-12-31T12:05:14.629Z,969.17
2016-12-31T12:06:14.688Z,969.11
2016-12-31T12:10:12.403Z,969.06
2016-12-31T12:11:12.525Z,968.99
2016-12-31T12:12:11.560Z,969.02
2016-12-31T12:13:12.502Z,968.97
2016-12-31T12:14:14.117Z,968.99
2016-12-31T12:15:14.858Z,968.97
2016-12-31T12:16:12.977Z,968.94
2016-12-31T12:17:12.734Z,968.91
2016-12-31T12:18:13.528Z,968.88
2016-12-31T12:19:13.225Z,968.90
2016-12-31T12:20:13.915Z,968.88
2016-12-31T12:21:14.632Z,968.86
2016-12-31T12:22:13.526Z,968.84
2016-12-31T12:23:13.121Z,968.82
2016-12-31T12:24:12.939Z,968.79
2016-12-31T12:25:13.563Z,968.76
2016-12-31T12:26:14.127Z,968.72
2016-12-31T12:27:12.664Z,968.70
2016-12-31T12:28:13.436Z,968.74
2016-12-31T12:29:14.094Z,968.69
2016-12-31T12:30:13.113Z,968.66
2016-12-31T12:31:13.177Z,968.71
2016-12-31T12:32:12.508Z,968.70
2016-12-31T12:33:13.225Z,968.68
2016-12-31T12:34:14.042Z,968.68